Cantua Creek, CA

4:27 AM PDT on September 01, 2014 (GMT -0700)
GFWS112 | Change Station
CLOSE
Current Station
Personal Weather Station
Location: Kerman, CA
Elevation: 197 ft
Nearby Weather Stations

Elev 197 ft 36.65 °N, 120.09 °W | Updated 18 seconds ago

Clear
Clear
61.7 °F
Feels Like 61.7 °F
N
0.0
Wind Variable Wind from North
Gusts 0.0 mph

Today
High -- | Low -- °F
--% Chance of Precip.
Yesterday
High -- | Low -- °F
Precip. -- in
6:32 AM 7:29 PM
Waxing Crescent, 40% visible
Pressure 29.79 in
Visibility 10.0 miles
Clouds Clear
Dew Point 54 °F
Humidity 75%
Rainfall 0.00 in
Snow Depth Not available.
UV 0 out of 12
Pollen 9.20 out of 12
Air Quality Not available.
Flu Activity Not available.
METAR KNLC 011056Z AUTO 00000KT 10SM CLR 19/07 A2980 RMK AO2 SLP088 T01890072 $

More Conditions Fewer Conditions

Pressure 29.79 in
Visibility 10.0 miles
Clouds Clear
Dew Point 54 °F
Humidity 75%
Rainfall 0.00 in
Snow Depth Not available.
UV 0 out of 12
Pollen 9.20 out of 12
Air Quality Not available.
Flu Activity Not available.
METAR KNLC 011056Z AUTO 00000KT 10SM CLR 19/07 A2980 RMK AO2 SLP088 T01890072 $

More Conditions Fewer Conditions

10-Day Weather Forecast

Almanac

Astronomy

Sep. 01, 2014 Rise Set
Actual Time 6:32 AM PDT 7:29 PM PDT
Civil Twilight 6:06 AM PDT 7:55 PM PDT
Nautical Twilight 5:35 AM PDT 8:26 PM PDT
Astronomical Twilight 5:02 AM PDT 8:59 PM PDT
Moon 1:12 PM PDT 11:46 PM PDT
Length of Visible Light 13h 49m
Length of Day
12h 56m
Tomorrow will be 2m 13s shorter.
Waxing Crescent, 40% of the Moon is Illuminated
Today
Waxing Crescent
Sep 2
First Quarter
Sep 8
Full
Sep 15
Last Quarter
Sep 24
New

Today's Extremes

State Highs State Lows

Community

WunderPhotos

Upload Photos

1,749,188 photos uploaded!

Nearby

Snow Depth

Station Depth Elevation
Leavitt Lake 0 in 9400 ft
Leavitt Meadows 1 in 7200 ft
Summit Meadow 2 in 9122 ft
Ebbetts Pass 0 in 8700 ft
Blue Lakes 0 in 8000 ft

Earthquake Activity

City Distance Mag. Time & Date
Green Valley, California 155 miles 2.5 6:37 AM PDT
2014-08-31
Napa, California 161 miles 3.2 1:56 AM PDT
2014-08-31
Gonzales, California 50 miles 2.7 9:48 PM PDT
2014-08-30
Ridgemark, California 55 miles 3.4 4:32 PM PDT
2014-08-29
Minimum magnitude displayed is 2.5.

Coastal Water Temperatures

Place Temperature
No Stations Reporting

Nearby Weather Stations